sensor_id;sensor_type;location;lat;lon;timestamp;P1;durP1;ratioP1;P2;durP2;ratioP2
12972;SDS011;6551;51.056;9.466;2022-11-04T00:01:52;4.07;;;2.70;;
12972;SDS011;6551;51.056;9.466;2022-11-04T00:04:19;2.80;;;2.40;;
12972;SDS011;6551;51.056;9.466;2022-11-04T00:06:47;3.70;;;2.70;;
12972;SDS011;6551;51.056;9.466;2022-11-04T00:09:15;3.20;;;2.60;;
12972;SDS011;6551;51.056;9.466;2022-11-04T00:11:47;2.30;;;2.07;;
12972;SDS011;6551;51.056;9.466;2022-11-04T00:14:32;3.03;;;2.10;;
12972;SDS011;6551;51.056;9.466;2022-11-04T00:17:00;3.03;;;2.70;;
12972;SDS011;6551;51.056;9.466;2022-11-04T00:19:46;4.30;;;2.87;;
12972;SDS011;6551;51.056;9.466;2022-11-04T00:22:36;2.93;;;2.40;;
12972;SDS011;6551;51.056;9.466;2022-11-04T00:25:22;4.23;;;2.77;;
12972;SDS011;6551;51.056;9.466;2022-11-04T00:28:10;3.87;;;3.00;;
12972;SDS011;6551;51.056;9.466;2022-11-04T00:30:59;5.10;;;3.40;;
12972;SDS011;6551;51.056;9.466;2022-11-04T00:33:46;5.60;;;3.43;;
12972;SDS011;6551;51.056;9.466;2022-11-04T00:36:14;4.17;;;3.33;;
12972;SDS011;6551;51.056;9.466;2022-11-04T00:38:40;5.37;;;3.50;;
12972;SDS011;6551;51.056;9.466;2022-11-04T00:41:05;4.30;;;3.90;;
12972;SDS011;6551;51.056;9.466;2022-11-04T00:44:07;6.03;;;4.50;;
12972;SDS011;6551;51.056;9.466;2022-11-04T00:46:36;7.77;;;5.20;;
12972;SDS011;6551;51.056;9.466;2022-11-04T00:49:02;6.63;;;5.07;;
12972;SDS011;6551;51.056;9.466;2022-11-04T00:51:27;8.00;;;5.17;;
12972;SDS011;6551;51.056;9.466;2022-11-04T00:53:53;7.13;;;5.53;;
12972;SDS011;6551;51.056;9.466;2022-11-04T00:56:19;6.27;;;5.60;;
12972;SDS011;6551;51.056;9.466;2022-11-04T00:58:45;6.97;;;5.30;;
12972;SDS011;6551;51.056;9.466;2022-11-04T01:01:12;7.43;;;5.67;;
12972;SDS011;6551;51.056;9.466;2022-11-04T01:03:46;6.97;;;5.50;;
12972;SDS011;6551;51.056;9.466;2022-11-04T01:06:14;6.80;;;6.20;;
12972;SDS011;6551;51.056;9.466;2022-11-04T01:08:41;7.43;;;6.43;;
12972;SDS011;6551;51.056;9.466;2022-11-04T01:11:07;9.03;;;6.90;;
12972;SDS011;6551;51.056;9.466;2022-11-04T01:13:34;7.60;;;6.80;;
12972;SDS011;6551;51.056;9.466;2022-11-04T01:16:01;7.20;;;6.23;;
12972;SDS011;6551;51.056;9.466;2022-11-04T01:18:30;8.80;;;6.50;;
12972;SDS011;6551;51.056;9.466;2022-11-04T01:21:00;8.30;;;6.80;;
12972;SDS011;6551;51.056;9.466;2022-11-04T01:23:29;7.33;;;6.23;;
12972;SDS011;6551;51.056;9.466;2022-11-04T01:25:54;9.30;;;6.67;;
12972;SDS011;6551;51.056;9.466;2022-11-04T01:28:20;9.40;;;6.80;;
12972;SDS011;6551;51.056;9.466;2022-11-04T01:30:46;7.63;;;5.53;;
12972;SDS011;6551;51.056;9.466;2022-11-04T01:33:12;9.90;;;6.20;;
12972;SDS011;6551;51.056;9.466;2022-11-04T01:35:38;7.57;;;6.20;;
12972;SDS011;6551;51.056;9.466;2022-11-04T01:38:03;7.10;;;5.73;;
12972;SDS011;6551;51.056;9.466;2022-11-04T01:40:29;6.50;;;5.30;;
12972;SDS011;6551;51.056;9.466;2022-11-04T01:43:00;7.57;;;5.70;;
12972;SDS011;6551;51.056;9.466;2022-11-04T01:45:25;6.80;;;5.40;;
12972;SDS011;6551;51.056;9.466;2022-11-04T01:48:02;6.13;;;5.30;;
12972;SDS011;6551;51.056;9.466;2022-11-04T01:50:33;6.37;;;5.33;;
12972;SDS011;6551;51.056;9.466;2022-11-04T01:53:35;6.23;;;5.63;;
12972;SDS011;6551;51.056;9.466;2022-11-04T01:56:05;11.00;;;5.70;;
12972;SDS011;6551;51.056;9.466;2022-11-04T01:58:37;6.87;;;6.20;;
12972;SDS011;6551;51.056;9.466;2022-11-04T02:01:10;9.10;;;6.07;;
12972;SDS011;6551;51.056;9.466;2022-11-04T02:03:38;7.10;;;5.60;;
12972;SDS011;6551;51.056;9.466;2022-11-04T02:06:18;6.07;;;5.13;;
12972;SDS011;6551;51.056;9.466;2022-11-04T02:08:46;8.00;;;6.17;;
12972;SDS011;6551;51.056;9.466;2022-11-04T02:11:13;7.83;;;5.67;;
12972;SDS011;6551;51.056;9.466;2022-11-04T02:13:59;7.63;;;5.20;;
12972;SDS011;6551;51.056;9.466;2022-11-04T02:16:44;5.17;;;4.63;;
12972;SDS011;6551;51.056;9.466;2022-11-04T02:31:22;5.03;;;3.33;;
12972;SDS011;6551;51.056;9.466;2022-11-04T02:40:12;3.33;;;2.10;;
12972;SDS011;6551;51.056;9.466;2022-11-04T02:42:57;3.13;;;1.97;;
12972;SDS011;6551;51.056;9.466;2022-11-04T02:48:19;2.17;;;1.60;;
12972;SDS011;6551;51.056;9.466;2022-11-04T02:51:06;1.50;;;1.20;;
12972;SDS011;6551;51.056;9.466;2022-11-04T02:54:05;1.10;;;0.87;;
12972;SDS011;6551;51.056;9.466;2022-11-04T02:56:50;2.63;;;1.20;;
12972;SDS011;6551;51.056;9.466;2022-11-04T03:01:59;1.50;;;1.23;;
12972;SDS011;6551;51.056;9.466;2022-11-04T03:04:34;3.33;;;1.10;;
12972;SDS011;6551;51.056;9.466;2022-11-04T03:07:04;2.23;;;1.00;;
12972;SDS011;6551;51.056;9.466;2022-11-04T03:09:36;1.07;;;0.87;;
12972;SDS011;6551;51.056;9.466;2022-11-04T03:12:06;1.07;;;0.70;;
12972;SDS011;6551;51.056;9.466;2022-11-04T03:14:42;0.70;;;0.50;;
12972;SDS011;6551;51.056;9.466;2022-11-04T03:17:16;1.27;;;0.70;;
12972;SDS011;6551;51.056;9.466;2022-11-04T03:20:15;1.60;;;0.67;;
12972;SDS011;6551;51.056;9.466;2022-11-04T03:22:49;0.90;;;0.60;;
12972;SDS011;6551;51.056;9.466;2022-11-04T03:25:19;3.33;;;0.80;;
12972;SDS011;6551;51.056;9.466;2022-11-04T03:27:53;1.10;;;0.80;;
12972;SDS011;6551;51.056;9.466;2022-11-04T03:30:23;1.20;;;0.87;;
12972;SDS011;6551;51.056;9.466;2022-11-04T03:32:57;0.97;;;0.80;;
12972;SDS011;6551;51.056;9.466;2022-11-04T03:35:30;0.80;;;0.80;;
12972;SDS011;6551;51.056;9.466;2022-11-04T03:37:56;0.83;;;0.57;;
12972;SDS011;6551;51.056;9.466;2022-11-04T03:40:22;1.50;;;0.90;;
12972;SDS011;6551;51.056;9.466;2022-11-04T03:42:52;1.20;;;0.80;;
12972;SDS011;6551;51.056;9.466;2022-11-04T03:45:27;1.03;;;0.77;;
12972;SDS011;6551;51.056;9.466;2022-11-04T03:47:54;1.27;;;0.80;;
12972;SDS011;6551;51.056;9.466;2022-11-04T03:53:08;3.00;;;1.10;;
12972;SDS011;6551;51.056;9.466;2022-11-04T03:55:43;1.20;;;0.87;;
12972;SDS011;6551;51.056;9.466;2022-11-04T04:06:51;2.20;;;0.87;;
12972;SDS011;6551;51.056;9.466;2022-11-04T04:09:35;1.30;;;0.97;;
12972;SDS011;6551;51.056;9.466;2022-11-04T04:15:07;1.33;;;0.90;;
12972;SDS011;6551;51.056;9.466;2022-11-04T04:17:45;8.13;;;6.53;;
12972;SDS011;6551;51.056;9.466;2022-11-04T04:20:19;4.97;;;4.47;;
12972;SDS011;6551;51.056;9.466;2022-11-04T04:22:57;5.77;;;3.63;;
12972;SDS011;6551;51.056;9.466;2022-11-04T04:25:49;4.40;;;3.80;;
12972;SDS011;6551;51.056;9.466;2022-11-04T04:28:36;5.03;;;2.40;;
12972;SDS011;6551;51.056;9.466;2022-11-04T04:31:04;4.57;;;4.13;;
12972;SDS011;6551;51.056;9.466;2022-11-04T04:33:31;4.43;;;4.03;;
12972;SDS011;6551;51.056;9.466;2022-11-04T04:35:56;19.93;;;17.83;;
12972;SDS011;6551;51.056;9.466;2022-11-04T04:38:25;18.17;;;16.20;;
12972;SDS011;6551;51.056;9.466;2022-11-04T04:41:30;18.23;;;14.80;;
12972;SDS011;6551;51.056;9.466;2022-11-04T04:44:19;20.43;;;14.77;;
12972;SDS011;6551;51.056;9.466;2022-11-04T04:47:13;16.07;;;11.70;;
12972;SDS011;6551;51.056;9.466;2022-11-04T04:49:49;19.33;;;12.93;;
12972;SDS011;6551;51.056;9.466;2022-11-04T04:52:21;19.83;;;14.03;;
12972;SDS011;6551;51.056;9.466;2022-11-04T04:54:49;18.80;;;10.90;;
12972;SDS011;6551;51.056;9.466;2022-11-04T04:57:14;20.40;;;11.57;;
12972;SDS011;6551;51.056;9.466;2022-11-04T04:59:40;36.80;;;24.53;;
12972;SDS011;6551;51.056;9.466;2022-11-04T05:02:06;45.83;;;28.40;;
12972;SDS011;6551;51.056;9.466;2022-11-04T05:04:32;21.37;;;12.17;;
12972;SDS011;6551;51.056;9.466;2022-11-04T05:06:57;19.37;;;11.97;;
12972;SDS011;6551;51.056;9.466;2022-11-04T05:09:23;10.33;;;6.23;;
12972;SDS011;6551;51.056;9.466;2022-11-04T05:11:49;18.57;;;12.77;;
12972;SDS011;6551;51.056;9.466;2022-11-04T05:14:14;13.60;;;9.47;;
12972;SDS011;6551;51.056;9.466;2022-11-04T05:16:40;11.60;;;8.27;;
12972;SDS011;6551;51.056;9.466;2022-11-04T05:19:06;27.17;;;18.97;;
12972;SDS011;6551;51.056;9.466;2022-11-04T05:21:32;6.20;;;5.00;;
12972;SDS011;6551;51.056;9.466;2022-11-04T05:23:57;3.43;;;2.30;;
12972;SDS011;6551;51.056;9.466;2022-11-04T05:26:23;5.90;;;4.50;;
12972;SDS011;6551;51.056;9.466;2022-11-04T05:28:48;5.60;;;3.77;;
12972;SDS011;6551;51.056;9.466;2022-11-04T05:31:14;4.60;;;3.80;;
12972;SDS011;6551;51.056;9.466;2022-11-04T05:33:40;7.03;;;4.10;;
12972;SDS011;6551;51.056;9.466;2022-11-04T05:38:36;4.90;;;3.53;;
12972;SDS011;6551;51.056;9.466;2022-11-04T05:41:03;2.43;;;1.33;;
12972;SDS011;6551;51.056;9.466;2022-11-04T05:43:31;1.37;;;1.13;;
12972;SDS011;6551;51.056;9.466;2022-11-04T05:45:57;3.83;;;1.43;;
12972;SDS011;6551;51.056;9.466;2022-11-04T05:48:24;3.93;;;1.10;;
12972;SDS011;6551;51.056;9.466;2022-11-04T05:50:50;1.80;;;1.30;;
12972;SDS011;6551;51.056;9.466;2022-11-04T05:53:16;2.60;;;1.47;;
12972;SDS011;6551;51.056;9.466;2022-11-04T05:55:41;2.20;;;1.27;;
12972;SDS011;6551;51.056;9.466;2022-11-04T05:58:07;4.33;;;1.83;;
12972;SDS011;6551;51.056;9.466;2022-11-04T06:00:33;2.20;;;1.80;;
12972;SDS011;6551;51.056;9.466;2022-11-04T06:02:59;1.97;;;1.43;;
12972;SDS011;6551;51.056;9.466;2022-11-04T06:05:25;2.67;;;1.00;;
12972;SDS011;6551;51.056;9.466;2022-11-04T06:07:52;2.63;;;1.40;;
12972;SDS011;6551;51.056;9.466;2022-11-04T06:10:18;2.40;;;1.30;;
12972;SDS011;6551;51.056;9.466;2022-11-04T06:12:44;3.87;;;1.47;;
12972;SDS011;6551;51.056;9.466;2022-11-04T06:15:10;2.00;;;1.17;;
12972;SDS011;6551;51.056;9.466;2022-11-04T06:17:35;2.70;;;1.33;;
12972;SDS011;6551;51.056;9.466;2022-11-04T06:20:02;1.57;;;1.10;;
12972;SDS011;6551;51.056;9.466;2022-11-04T06:22:30;3.13;;;1.10;;
12972;SDS011;6551;51.056;9.466;2022-11-04T06:24:57;2.87;;;0.97;;
12972;SDS011;6551;51.056;9.466;2022-11-04T06:27:23;1.43;;;0.90;;
12972;SDS011;6551;51.056;9.466;2022-11-04T06:29:48;1.60;;;1.33;;
12972;SDS011;6551;51.056;9.466;2022-11-04T06:32:16;5.87;;;1.30;;
12972;SDS011;6551;51.056;9.466;2022-11-04T06:34:42;3.00;;;1.50;;
12972;SDS011;6551;51.056;9.466;2022-11-04T06:37:09;5.70;;;1.50;;
12972;SDS011;6551;51.056;9.466;2022-11-04T06:39:35;2.20;;;1.10;;
12972;SDS011;6551;51.056;9.466;2022-11-04T06:42:01;3.50;;;1.43;;
12972;SDS011;6551;51.056;9.466;2022-11-04T06:44:28;7.40;;;1.67;;
12972;SDS011;6551;51.056;9.466;2022-11-04T06:46:54;3.47;;;1.53;;
12972;SDS011;6551;51.056;9.466;2022-11-04T06:49:21;3.37;;;1.70;;
12972;SDS011;6551;51.056;9.466;2022-11-04T06:51:48;10.80;;;1.80;;
12972;SDS011;6551;51.056;9.466;2022-11-04T06:54:14;5.33;;;1.47;;
12972;SDS011;6551;51.056;9.466;2022-11-04T06:56:41;3.10;;;1.53;;
12972;SDS011;6551;51.056;9.466;2022-11-04T06:59:08;5.87;;;1.57;;
12972;SDS011;6551;51.056;9.466;2022-11-04T07:01:40;6.77;;;1.40;;
12972;SDS011;6551;51.056;9.466;2022-11-04T07:04:06;3.43;;;1.40;;
12972;SDS011;6551;51.056;9.466;2022-11-04T07:06:31;4.80;;;1.30;;
12972;SDS011;6551;51.056;9.466;2022-11-04T07:08:58;3.10;;;1.37;;
12972;SDS011;6551;51.056;9.466;2022-11-04T07:11:26;3.30;;;1.13;;
12972;SDS011;6551;51.056;9.466;2022-11-04T07:13:54;4.03;;;1.43;;
12972;SDS011;6551;51.056;9.466;2022-11-04T07:16:20;4.90;;;1.60;;
12972;SDS011;6551;51.056;9.466;2022-11-04T07:18:46;4.20;;;1.70;;
12972;SDS011;6551;51.056;9.466;2022-11-04T07:21:13;3.73;;;1.60;;
12972;SDS011;6551;51.056;9.466;2022-11-04T07:23:39;5.43;;;1.87;;
12972;SDS011;6551;51.056;9.466;2022-11-04T07:26:05;5.60;;;1.60;;
12972;SDS011;6551;51.056;9.466;2022-11-04T07:28:33;3.33;;;1.27;;
12972;SDS011;6551;51.056;9.466;2022-11-04T07:31:00;2.17;;;1.30;;
12972;SDS011;6551;51.056;9.466;2022-11-04T07:33:28;3.57;;;1.83;;
12972;SDS011;6551;51.056;9.466;2022-11-04T07:35:54;5.17;;;1.43;;
12972;SDS011;6551;51.056;9.466;2022-11-04T07:38:20;4.67;;;1.70;;
12972;SDS011;6551;51.056;9.466;2022-11-04T07:40:46;6.60;;;2.00;;
12972;SDS011;6551;51.056;9.466;2022-11-04T07:43:13;2.87;;;1.40;;
12972;SDS011;6551;51.056;9.466;2022-11-04T07:45:40;3.80;;;1.90;;
12972;SDS011;6551;51.056;9.466;2022-11-04T07:48:06;9.67;;;2.00;;
12972;SDS011;6551;51.056;9.466;2022-11-04T07:50:32;7.07;;;1.83;;
12972;SDS011;6551;51.056;9.466;2022-11-04T07:52:58;3.50;;;1.67;;
12972;SDS011;6551;51.056;9.466;2022-11-04T07:55:25;4.30;;;2.03;;
12972;SDS011;6551;51.056;9.466;2022-11-04T07:57:52;2.83;;;1.60;;
12972;SDS011;6551;51.056;9.466;2022-11-04T08:00:18;6.07;;;1.97;;
12972;SDS011;6551;51.056;9.466;2022-11-04T08:02:44;3.47;;;1.60;;
12972;SDS011;6551;51.056;9.466;2022-11-04T08:05:11;7.47;;;2.00;;
12972;SDS011;6551;51.056;9.466;2022-11-04T08:07:40;3.47;;;1.80;;
12972;SDS011;6551;51.056;9.466;2022-11-04T08:10:06;3.10;;;1.57;;
12972;SDS011;6551;51.056;9.466;2022-11-04T08:12:32;3.80;;;1.67;;
12972;SDS011;6551;51.056;9.466;2022-11-04T08:14:58;5.17;;;1.40;;
12972;SDS011;6551;51.056;9.466;2022-11-04T08:17:24;5.73;;;1.70;;
12972;SDS011;6551;51.056;9.466;2022-11-04T08:19:50;5.70;;;1.40;;
12972;SDS011;6551;51.056;9.466;2022-11-04T08:22:16;3.00;;;1.20;;
12972;SDS011;6551;51.056;9.466;2022-11-04T08:24:42;3.40;;;2.03;;
12972;SDS011;6551;51.056;9.466;2022-11-04T08:27:11;3.97;;;1.13;;
12972;SDS011;6551;51.056;9.466;2022-11-04T08:29:37;2.80;;;1.20;;
12972;SDS011;6551;51.056;9.466;2022-11-04T08:32:03;4.13;;;1.50;;
12972;SDS011;6551;51.056;9.466;2022-11-04T08:34:29;3.93;;;1.57;;
12972;SDS011;6551;51.056;9.466;2022-11-04T08:36:54;4.97;;;1.43;;
12972;SDS011;6551;51.056;9.466;2022-11-04T08:39:24;1.77;;;0.97;;
12972;SDS011;6551;51.056;9.466;2022-11-04T08:41:50;4.53;;;1.40;;
12972;SDS011;6551;51.056;9.466;2022-11-04T08:44:17;4.70;;;1.80;;
12972;SDS011;6551;51.056;9.466;2022-11-04T08:46:44;4.63;;;1.57;;
12972;SDS011;6551;51.056;9.466;2022-11-04T08:49:10;2.70;;;1.77;;
12972;SDS011;6551;51.056;9.466;2022-11-04T08:51:38;6.17;;;1.80;;
12972;SDS011;6551;51.056;9.466;2022-11-04T08:54:07;4.50;;;1.60;;
12972;SDS011;6551;51.056;9.466;2022-11-04T08:56:35;4.67;;;2.00;;
12972;SDS011;6551;51.056;9.466;2022-11-04T08:59:03;5.67;;;1.93;;
12972;SDS011;6551;51.056;9.466;2022-11-04T09:01:30;4.77;;;1.73;;
12972;SDS011;6551;51.056;9.466;2022-11-04T09:03:59;6.63;;;1.87;;
12972;SDS011;6551;51.056;9.466;2022-11-04T09:06:26;6.67;;;1.60;;
12972;SDS011;6551;51.056;9.466;2022-11-04T09:08:56;33.67;;;16.93;;
12972;SDS011;6551;51.056;9.466;2022-11-04T09:11:28;31.40;;;18.43;;
12972;SDS011;6551;51.056;9.466;2022-11-04T09:14:02;24.80;;;15.60;;
12972;SDS011;6551;51.056;9.466;2022-11-04T09:16:29;84.63;;;31.07;;
12972;SDS011;6551;51.056;9.466;2022-11-04T09:18:57;103.50;;;40.07;;
12972;SDS011;6551;51.056;9.466;2022-11-04T09:21:23;104.73;;;44.93;;
12972;SDS011;6551;51.056;9.466;2022-11-04T09:23:51;28.50;;;13.10;;
12972;SDS011;6551;51.056;9.466;2022-11-04T09:26:17;48.37;;;23.63;;
12972;SDS011;6551;51.056;9.466;2022-11-04T09:28:44;17.13;;;8.27;;
12972;SDS011;6551;51.056;9.466;2022-11-04T09:31:14;41.83;;;22.97;;
12972;SDS011;6551;51.056;9.466;2022-11-04T09:33:42;10.17;;;4.30;;
12972;SDS011;6551;51.056;9.466;2022-11-04T09:36:09;41.80;;;26.40;;
12972;SDS011;6551;51.056;9.466;2022-11-04T09:38:37;14.37;;;6.70;;
12972;SDS011;6551;51.056;9.466;2022-11-04T09:44:17;9.50;;;2.47;;
12972;SDS011;6551;51.056;9.466;2022-11-04T09:47:04;3.67;;;1.20;;
12972;SDS011;6551;51.056;9.466;2022-11-04T09:49:35;6.73;;;2.67;;
12972;SDS011;6551;51.056;9.466;2022-11-04T09:52:07;4.07;;;1.17;;
12972;SDS011;6551;51.056;9.466;2022-11-04T09:54:53;4.37;;;1.43;;
12972;SDS011;6551;51.056;9.466;2022-11-04T09:57:56;4.13;;;1.10;;
12972;SDS011;6551;51.056;9.466;2022-11-04T10:00:23;6.00;;;1.80;;
12972;SDS011;6551;51.056;9.466;2022-11-04T10:09:26;5.00;;;1.10;;
12972;SDS011;6551;51.056;9.466;2022-11-04T10:17:29;5.50;;;1.67;;
12972;SDS011;6551;51.056;9.466;2022-11-04T10:20:30;6.57;;;1.63;;
12972;SDS011;6551;51.056;9.466;2022-11-04T10:23:36;13.43;;;7.23;;
12972;SDS011;6551;51.056;9.466;2022-11-04T10:29:07;19.70;;;7.83;;
12972;SDS011;6551;51.056;9.466;2022-11-04T10:31:48;19.80;;;8.30;;
12972;SDS011;6551;51.056;9.466;2022-11-04T10:34:35;31.03;;;12.43;;
12972;SDS011;6551;51.056;9.466;2022-11-04T10:37:11;15.33;;;6.93;;
12972;SDS011;6551;51.056;9.466;2022-11-04T10:39:39;13.60;;;5.33;;
12972;SDS011;6551;51.056;9.466;2022-11-04T10:42:10;7.07;;;2.37;;
12972;SDS011;6551;51.056;9.466;2022-11-04T10:44:40;6.50;;;2.77;;
12972;SDS011;6551;51.056;9.466;2022-11-04T10:52:36;7.37;;;2.87;;
12972;SDS011;6551;51.056;9.466;2022-11-04T10:55:03;14.13;;;7.30;;
12972;SDS011;6551;51.056;9.466;2022-11-04T10:58:02;14.63;;;6.30;;
12972;SDS011;6551;51.056;9.466;2022-11-04T11:00:38;17.33;;;6.57;;
12972;SDS011;6551;51.056;9.466;2022-11-04T11:08:56;8.00;;;2.30;;
12972;SDS011;6551;51.056;9.466;2022-11-04T11:11:38;7.83;;;3.37;;
12972;SDS011;6551;51.056;9.466;2022-11-04T11:14:17;8.57;;;4.20;;
12972;SDS011;6551;51.056;9.466;2022-11-04T11:16:50;6.67;;;3.30;;
12972;SDS011;6551;51.056;9.466;2022-11-04T11:19:18;5.30;;;1.43;;
12972;SDS011;6551;51.056;9.466;2022-11-04T11:21:47;9.27;;;1.60;;
12972;SDS011;6551;51.056;9.466;2022-11-04T11:24:23;6.03;;;1.70;;
12972;SDS011;6551;51.056;9.466;2022-11-04T11:27:00;5.83;;;2.20;;
12972;SDS011;6551;51.056;9.466;2022-11-04T11:29:39;5.50;;;1.50;;
12972;SDS011;6551;51.056;9.466;2022-11-04T11:32:15;8.17;;;1.60;;
12972;SDS011;6551;51.056;9.466;2022-11-04T11:35:13;7.77;;;2.07;;
12972;SDS011;6551;51.056;9.466;2022-11-04T11:37:43;10.93;;;2.50;;
12972;SDS011;6551;51.056;9.466;2022-11-04T11:40:24;7.47;;;2.47;;
12972;SDS011;6551;51.056;9.466;2022-11-04T11:42:56;7.00;;;1.90;;
12972;SDS011;6551;51.056;9.466;2022-11-04T11:45:24;8.77;;;1.70;;
12972;SDS011;6551;51.056;9.466;2022-11-04T11:47:52;5.40;;;1.63;;
12972;SDS011;6551;51.056;9.466;2022-11-04T11:50:22;6.47;;;2.00;;
12972;SDS011;6551;51.056;9.466;2022-11-04T11:58:31;11.40;;;6.80;;
12972;SDS011;6551;51.056;9.466;2022-11-04T12:03:54;14.33;;;6.37;;
12972;SDS011;6551;51.056;9.466;2022-11-04T12:29:22;24.97;;;13.33;;
12972;SDS011;6551;51.056;9.466;2022-11-04T12:50:00;14.63;;;8.00;;
12972;SDS011;6551;51.056;9.466;2022-11-04T12:53:05;9.20;;;3.37;;
12972;SDS011;6551;51.056;9.466;2022-11-04T12:56:16;23.20;;;10.87;;
12972;SDS011;6551;51.056;9.466;2022-11-04T12:59:00;9.27;;;5.13;;
12972;SDS011;6551;51.056;9.466;2022-11-04T13:02:22;13.70;;;6.93;;
12972;SDS011;6551;51.056;9.466;2022-11-04T13:04:57;10.77;;;5.70;;
12972;SDS011;6551;51.056;9.466;2022-11-04T13:13:10;13.07;;;5.87;;
12972;SDS011;6551;51.056;9.466;2022-11-04T13:15:43;38.57;;;15.57;;
12972;SDS011;6551;51.056;9.466;2022-11-04T13:18:15;27.43;;;9.97;;
12972;SDS011;6551;51.056;9.466;2022-11-04T13:20:46;11.03;;;6.23;;
12972;SDS011;6551;51.056;9.466;2022-11-04T13:26:59;10.23;;;2.30;;
12972;SDS011;6551;51.056;9.466;2022-11-04T13:29:30;5.50;;;1.30;;
12972;SDS011;6551;51.056;9.466;2022-11-04T13:32:10;6.60;;;1.70;;
12972;SDS011;6551;51.056;9.466;2022-11-04T13:38:01;23.97;;;8.00;;
12972;SDS011;6551;51.056;9.466;2022-11-04T13:43:32;4.27;;;1.80;;
12972;SDS011;6551;51.056;9.466;2022-11-04T13:48:35;4.77;;;1.63;;
12972;SDS011;6551;51.056;9.466;2022-11-04T13:54:26;11.63;;;4.20;;
12972;SDS011;6551;51.056;9.466;2022-11-04T14:16:03;17.00;;;7.73;;
12972;SDS011;6551;51.056;9.466;2022-11-04T14:18:47;8.17;;;1.97;;
12972;SDS011;6551;51.056;9.466;2022-11-04T14:21:16;12.00;;;4.87;;
12972;SDS011;6551;51.056;9.466;2022-11-04T14:23:44;24.00;;;12.17;;
12972;SDS011;6551;51.056;9.466;2022-11-04T14:26:21;9.00;;;4.27;;
12972;SDS011;6551;51.056;9.466;2022-11-04T14:29:08;19.90;;;8.60;;
12972;SDS011;6551;51.056;9.466;2022-11-04T14:31:49;8.00;;;2.93;;
12972;SDS011;6551;51.056;9.466;2022-11-04T14:34:24;24.07;;;11.47;;
12972;SDS011;6551;51.056;9.466;2022-11-04T14:36:57;13.93;;;5.67;;
12972;SDS011;6551;51.056;9.466;2022-11-04T14:39:31;20.10;;;10.00;;
12972;SDS011;6551;51.056;9.466;2022-11-04T14:42:03;21.47;;;10.40;;
12972;SDS011;6551;51.056;9.466;2022-11-04T14:44:31;23.97;;;10.07;;
12972;SDS011;6551;51.056;9.466;2022-11-04T14:47:20;21.60;;;9.80;;
12972;SDS011;6551;51.056;9.466;2022-11-04T14:55:15;54.47;;;32.73;;
12972;SDS011;6551;51.056;9.466;2022-11-04T14:57:54;29.93;;;17.53;;
12972;SDS011;6551;51.056;9.466;2022-11-04T15:00:51;18.67;;;9.60;;
12972;SDS011;6551;51.056;9.466;2022-11-04T15:03:35;24.80;;;11.57;;
12972;SDS011;6551;51.056;9.466;2022-11-04T15:06:03;30.57;;;16.20;;
12972;SDS011;6551;51.056;9.466;2022-11-04T15:11:11;32.93;;;13.53;;
12972;SDS011;6551;51.056;9.466;2022-11-04T15:13:46;26.93;;;11.23;;
12972;SDS011;6551;51.056;9.466;2022-11-04T15:16:21;33.47;;;19.03;;
12972;SDS011;6551;51.056;9.466;2022-11-04T15:18:51;26.77;;;14.13;;
12972;SDS011;6551;51.056;9.466;2022-11-04T15:21:19;22.20;;;11.53;;
12972;SDS011;6551;51.056;9.466;2022-11-04T15:23:46;27.07;;;15.33;;
12972;SDS011;6551;51.056;9.466;2022-11-04T15:26:18;29.73;;;15.10;;
12972;SDS011;6551;51.056;9.466;2022-11-04T15:28:53;18.73;;;9.40;;
12972;SDS011;6551;51.056;9.466;2022-11-04T15:31:22;26.77;;;15.40;;
12972;SDS011;6551;51.056;9.466;2022-11-04T15:33:54;22.37;;;13.03;;
12972;SDS011;6551;51.056;9.466;2022-11-04T15:39:02;24.63;;;14.23;;
12972;SDS011;6551;51.056;9.466;2022-11-04T15:41:41;21.70;;;16.10;;
12972;SDS011;6551;51.056;9.466;2022-11-04T15:44:30;24.20;;;17.27;;
12972;SDS011;6551;51.056;9.466;2022-11-04T15:47:02;23.00;;;13.83;;
12972;SDS011;6551;51.056;9.466;2022-11-04T15:49:44;17.93;;;11.47;;
12972;SDS011;6551;51.056;9.466;2022-11-04T15:52:13;19.67;;;15.13;;
12972;SDS011;6551;51.056;9.466;2022-11-04T15:54:51;16.17;;;9.77;;
12972;SDS011;6551;51.056;9.466;2022-11-04T15:57:31;10.27;;;5.70;;
12972;SDS011;6551;51.056;9.466;2022-11-04T16:00:35;13.10;;;6.30;;
12972;SDS011;6551;51.056;9.466;2022-11-04T16:02:56;11.50;;;3.90;;
12972;SDS011;6551;51.056;9.466;2022-11-04T16:05:25;12.57;;;5.07;;
12972;SDS011;6551;51.056;9.466;2022-11-04T16:11:08;11.50;;;4.33;;
12972;SDS011;6551;51.056;9.466;2022-11-04T16:13:36;8.20;;;3.00;;
12972;SDS011;6551;51.056;9.466;2022-11-04T16:18:36;4.73;;;2.50;;
12972;SDS011;6551;51.056;9.466;2022-11-04T16:21:11;6.03;;;2.77;;
12972;SDS011;6551;51.056;9.466;2022-11-04T16:23:46;8.90;;;3.77;;
12972;SDS011;6551;51.056;9.466;2022-11-04T16:26:25;11.00;;;4.13;;
12972;SDS011;6551;51.056;9.466;2022-11-04T16:29:04;12.23;;;7.03;;
12972;SDS011;6551;51.056;9.466;2022-11-04T16:31:42;14.23;;;8.30;;
12972;SDS011;6551;51.056;9.466;2022-11-04T16:34:10;26.37;;;17.83;;
12972;SDS011;6551;51.056;9.466;2022-11-04T16:36:37;49.97;;;41.57;;
12972;SDS011;6551;51.056;9.466;2022-11-04T16:39:03;26.07;;;21.23;;
12972;SDS011;6551;51.056;9.466;2022-11-04T16:41:34;31.53;;;25.40;;
12972;SDS011;6551;51.056;9.466;2022-11-04T16:44:03;34.17;;;25.20;;
12972;SDS011;6551;51.056;9.466;2022-11-04T16:46:39;38.17;;;26.27;;
12972;SDS011;6551;51.056;9.466;2022-11-04T16:49:05;51.70;;;33.23;;
12972;SDS011;6551;51.056;9.466;2022-11-04T16:51:30;32.30;;;25.67;;
12972;SDS011;6551;51.056;9.466;2022-11-04T16:53:58;33.97;;;25.40;;
12972;SDS011;6551;51.056;9.466;2022-11-04T16:56:24;28.63;;;15.33;;
12972;SDS011;6551;51.056;9.466;2022-11-04T16:58:51;24.53;;;19.27;;
12972;SDS011;6551;51.056;9.466;2022-11-04T17:01:24;28.43;;;17.43;;
12972;SDS011;6551;51.056;9.466;2022-11-04T17:03:49;23.50;;;14.77;;
12972;SDS011;6551;51.056;9.466;2022-11-04T17:06:15;13.67;;;7.53;;
12972;SDS011;6551;51.056;9.466;2022-11-04T17:08:41;22.23;;;15.03;;
12972;SDS011;6551;51.056;9.466;2022-11-04T17:11:08;21.00;;;15.13;;
12972;SDS011;6551;51.056;9.466;2022-11-04T17:13:35;19.40;;;14.57;;
12972;SDS011;6551;51.056;9.466;2022-11-04T17:16:02;11.00;;;7.43;;
12972;SDS011;6551;51.056;9.466;2022-11-04T17:18:34;13.87;;;7.57;;
12972;SDS011;6551;51.056;9.466;2022-11-04T17:21:01;13.03;;;8.70;;
12972;SDS011;6551;51.056;9.466;2022-11-04T17:23:31;15.80;;;9.60;;
12972;SDS011;6551;51.056;9.466;2022-11-04T17:25:58;12.13;;;7.93;;
12972;SDS011;6551;51.056;9.466;2022-11-04T17:28:24;10.23;;;5.70;;
12972;SDS011;6551;51.056;9.466;2022-11-04T17:30:50;10.37;;;5.17;;
12972;SDS011;6551;51.056;9.466;2022-11-04T17:33:17;5.87;;;4.53;;
12972;SDS011;6551;51.056;9.466;2022-11-04T17:35:44;27.60;;;12.37;;
12972;SDS011;6551;51.056;9.466;2022-11-04T17:38:13;57.10;;;20.97;;
12972;SDS011;6551;51.056;9.466;2022-11-04T17:40:41;44.20;;;24.20;;
12972;SDS011;6551;51.056;9.466;2022-11-04T17:43:25;19.80;;;9.00;;
12972;SDS011;6551;51.056;9.466;2022-11-04T17:46:10;19.87;;;6.70;;
12972;SDS011;6551;51.056;9.466;2022-11-04T17:48:55;27.37;;;12.67;;
12972;SDS011;6551;51.056;9.466;2022-11-04T17:51:21;41.13;;;18.83;;
12972;SDS011;6551;51.056;9.466;2022-11-04T17:53:47;24.20;;;13.00;;
12972;SDS011;6551;51.056;9.466;2022-11-04T17:56:14;26.53;;;12.93;;
12972;SDS011;6551;51.056;9.466;2022-11-04T17:58:41;15.90;;;8.13;;
12972;SDS011;6551;51.056;9.466;2022-11-04T18:01:07;10.73;;;6.87;;
12972;SDS011;6551;51.056;9.466;2022-11-04T18:03:34;17.60;;;8.73;;
12972;SDS011;6551;51.056;9.466;2022-11-04T18:06:00;11.17;;;4.70;;
12972;SDS011;6551;51.056;9.466;2022-11-04T18:08:28;14.90;;;9.33;;
12972;SDS011;6551;51.056;9.466;2022-11-04T18:10:58;12.50;;;8.33;;
12972;SDS011;6551;51.056;9.466;2022-11-04T18:13:26;12.70;;;6.87;;
12972;SDS011;6551;51.056;9.466;2022-11-04T18:15:52;10.73;;;3.93;;
12972;SDS011;6551;51.056;9.466;2022-11-04T18:18:18;12.50;;;6.80;;